sensor_id;sensor_type;location;lat;lon;timestamp;temperature;humidity
3912;DHT22;1971;51.778;10.330;2023-07-29T00:01:21;16.80;99.90
3912;DHT22;1971;51.778;10.330;2023-07-29T00:03:51;16.80;99.90
3912;DHT22;1971;51.778;10.330;2023-07-29T00:06:21;16.70;99.90
3912;DHT22;1971;51.778;10.330;2023-07-29T00:08:51;16.70;99.90
3912;DHT22;1971;51.778;10.330;2023-07-29T00:11:22;16.80;99.90
3912;DHT22;1971;51.778;10.330;2023-07-29T00:13:55;16.70;99.90
3912;DHT22;1971;51.778;10.330;2023-07-29T00:16:25;16.80;99.90
3912;DHT22;1971;51.778;10.330;2023-07-29T00:18:55;16.70;99.90
3912;DHT22;1971;51.778;10.330;2023-07-29T00:21:25;16.90;99.90
3912;DHT22;1971;51.778;10.330;2023-07-29T00:23:56;16.90;99.90
3912;DHT22;1971;51.778;10.330;2023-07-29T00:26:28;16.80;99.90
3912;DHT22;1971;51.778;10.330;2023-07-29T00:29:02;16.80;99.90
3912;DHT22;1971;51.778;10.330;2023-07-29T00:31:32;16.80;99.90
3912;DHT22;1971;51.778;10.330;2023-07-29T00:34:03;16.70;99.90
3912;DHT22;1971;51.778;10.330;2023-07-29T00:36:33;16.70;99.90
3912;DHT22;1971;51.778;10.330;2023-07-29T00:39:04;16.70;99.90
3912;DHT22;1971;51.778;10.330;2023-07-29T00:41:34;16.70;99.90
3912;DHT22;1971;51.778;10.330;2023-07-29T00:44:07;16.70;99.90
3912;DHT22;1971;51.778;10.330;2023-07-29T00:46:38;16.70;99.90
3912;DHT22;1971;51.778;10.330;2023-07-29T00:49:09;16.70;99.90
3912;DHT22;1971;51.778;10.330;2023-07-29T00:51:41;16.70;99.90
3912;DHT22;1971;51.778;10.330;2023-07-29T00:54:12;16.60;99.90
3912;DHT22;1971;51.778;10.330;2023-07-29T00:56:42;16.60;99.90
3912;DHT22;1971;51.778;10.330;2023-07-29T00:59:15;16.60;99.90
3912;DHT22;1971;51.778;10.330;2023-07-29T01:01:46;16.60;99.90
3912;DHT22;1971;51.778;10.330;2023-07-29T01:04:16;16.70;99.90
3912;DHT22;1971;51.778;10.330;2023-07-29T01:06:53;16.60;99.90
3912;DHT22;1971;51.778;10.330;2023-07-29T01:09:33;16.60;99.90
3912;DHT22;1971;51.778;10.330;2023-07-29T01:12:12;16.50;99.90
3912;DHT22;1971;51.778;10.330;2023-07-29T01:14:54;16.50;99.90
3912;DHT22;1971;51.778;10.330;2023-07-29T01:17:29;16.40;99.90
3912;DHT22;1971;51.778;10.330;2023-07-29T01:20:01;16.50;99.90
3912;DHT22;1971;51.778;10.330;2023-07-29T01:22:34;16.50;99.90
3912;DHT22;1971;51.778;10.330;2023-07-29T01:25:07;16.40;99.90
3912;DHT22;1971;51.778;10.330;2023-07-29T01:27:38;16.40;99.90
3912;DHT22;1971;51.778;10.330;2023-07-29T01:30:09;16.40;99.90
3912;DHT22;1971;51.778;10.330;2023-07-29T01:32:46;16.30;99.90
3912;DHT22;1971;51.778;10.330;2023-07-29T01:35:23;16.40;99.90
3912;DHT22;1971;51.778;10.330;2023-07-29T01:37:56;16.40;99.90
3912;DHT22;1971;51.778;10.330;2023-07-29T01:40:32;16.40;99.90
3912;DHT22;1971;51.778;10.330;2023-07-29T01:43:03;16.30;99.90
3912;DHT22;1971;51.778;10.330;2023-07-29T01:45:34;16.30;99.90
3912;DHT22;1971;51.778;10.330;2023-07-29T01:48:05;16.40;99.90
3912;DHT22;1971;51.778;10.330;2023-07-29T01:50:36;16.20;99.90
3912;DHT22;1971;51.778;10.330;2023-07-29T01:53:07;16.20;99.90
3912;DHT22;1971;51.778;10.330;2023-07-29T01:55:40;16.10;99.90
3912;DHT22;1971;51.778;10.330;2023-07-29T01:58:12;16.10;99.90
3912;DHT22;1971;51.778;10.330;2023-07-29T02:00:46;16.00;99.90
3912;DHT22;1971;51.778;10.330;2023-07-29T02:03:16;16.20;99.90
3912;DHT22;1971;51.778;10.330;2023-07-29T02:05:46;16.10;99.90
3912;DHT22;1971;51.778;10.330;2023-07-29T02:08:16;16.20;99.90
3912;DHT22;1971;51.778;10.330;2023-07-29T02:10:49;16.20;99.90
3912;DHT22;1971;51.778;10.330;2023-07-29T02:13:19;16.30;99.90
3912;DHT22;1971;51.778;10.330;2023-07-29T02:15:49;16.20;99.90
3912;DHT22;1971;51.778;10.330;2023-07-29T02:18:20;16.30;99.90
3912;DHT22;1971;51.778;10.330;2023-07-29T02:20:50;16.30;99.90
3912;DHT22;1971;51.778;10.330;2023-07-29T02:23:20;16.30;99.90
3912;DHT22;1971;51.778;10.330;2023-07-29T02:25:52;16.30;99.90
3912;DHT22;1971;51.778;10.330;2023-07-29T02:28:22;16.40;99.90
3912;DHT22;1971;51.778;10.330;2023-07-29T02:31:14;16.40;99.90
3912;DHT22;1971;51.778;10.330;2023-07-29T02:33:45;16.40;99.90
3912;DHT22;1971;51.778;10.330;2023-07-29T02:36:17;16.40;99.90
3912;DHT22;1971;51.778;10.330;2023-07-29T02:38:47;16.40;99.90
3912;DHT22;1971;51.778;10.330;2023-07-29T02:41:20;16.30;99.90
3912;DHT22;1971;51.778;10.330;2023-07-29T02:43:51;16.40;99.90
3912;DHT22;1971;51.778;10.330;2023-07-29T02:46:21;16.40;99.90
3912;DHT22;1971;51.778;10.330;2023-07-29T02:48:52;16.40;99.90
3912;DHT22;1971;51.778;10.330;2023-07-29T02:51:22;16.40;99.90
3912;DHT22;1971;51.778;10.330;2023-07-29T02:53:52;16.40;99.90
3912;DHT22;1971;51.778;10.330;2023-07-29T02:56:25;16.40;99.90
3912;DHT22;1971;51.778;10.330;2023-07-29T02:58:55;16.40;99.90
3912;DHT22;1971;51.778;10.330;2023-07-29T03:01:26;16.40;99.90
3912;DHT22;1971;51.778;10.330;2023-07-29T03:03:56;16.40;99.90
3912;DHT22;1971;51.778;10.330;2023-07-29T03:06:27;16.40;99.90
3912;DHT22;1971;51.778;10.330;2023-07-29T03:08:57;16.40;99.90
3912;DHT22;1971;51.778;10.330;2023-07-29T03:11:30;16.40;99.90
3912;DHT22;1971;51.778;10.330;2023-07-29T03:14:01;16.40;99.90
3912;DHT22;1971;51.778;10.330;2023-07-29T03:16:31;16.50;99.90
3912;DHT22;1971;51.778;10.330;2023-07-29T03:19:01;16.40;99.90
3912;DHT22;1971;51.778;10.330;2023-07-29T03:21:33;16.40;99.90
3912;DHT22;1971;51.778;10.330;2023-07-29T03:24:04;16.40;99.90
3912;DHT22;1971;51.778;10.330;2023-07-29T03:26:37;16.40;99.90
3912;DHT22;1971;51.778;10.330;2023-07-29T03:29:11;16.40;99.90
3912;DHT22;1971;51.778;10.330;2023-07-29T03:31:41;16.40;99.90
3912;DHT22;1971;51.778;10.330;2023-07-29T03:34:12;16.40;99.90
3912;DHT22;1971;51.778;10.330;2023-07-29T03:36:45;16.40;99.90
3912;DHT22;1971;51.778;10.330;2023-07-29T03:39:18;16.40;99.90
3912;DHT22;1971;51.778;10.330;2023-07-29T03:41:51;16.40;99.90
3912;DHT22;1971;51.778;10.330;2023-07-29T03:44:21;16.40;99.90
3912;DHT22;1971;51.778;10.330;2023-07-29T03:46:51;16.40;99.90
3912;DHT22;1971;51.778;10.330;2023-07-29T03:49:21;16.40;99.90
3912;DHT22;1971;51.778;10.330;2023-07-29T03:51:51;16.40;99.90
3912;DHT22;1971;51.778;10.330;2023-07-29T03:54:21;16.40;99.90
3912;DHT22;1971;51.778;10.330;2023-07-29T03:56:55;16.40;99.90
3912;DHT22;1971;51.778;10.330;2023-07-29T03:59:25;16.40;99.90
3912;DHT22;1971;51.778;10.330;2023-07-29T04:01:56;16.30;99.90
3912;DHT22;1971;51.778;10.330;2023-07-29T04:04:27;16.30;99.90
3912;DHT22;1971;51.778;10.330;2023-07-29T04:06:57;16.30;99.90
3912;DHT22;1971;51.778;10.330;2023-07-29T04:09:28;16.30;99.90
3912;DHT22;1971;51.778;10.330;2023-07-29T04:12:01;16.30;99.90
3912;DHT22;1971;51.778;10.330;2023-07-29T04:14:31;16.30;99.90
3912;DHT22;1971;51.778;10.330;2023-07-29T04:17:03;16.30;99.90
3912;DHT22;1971;51.778;10.330;2023-07-29T04:19:34;16.40;99.90
3912;DHT22;1971;51.778;10.330;2023-07-29T04:22:04;16.40;99.90
3912;DHT22;1971;51.778;10.330;2023-07-29T04:24:34;16.50;99.90
3912;DHT22;1971;51.778;10.330;2023-07-29T04:27:08;16.50;99.90
3912;DHT22;1971;51.778;10.330;2023-07-29T04:29:38;16.50;99.90
3912;DHT22;1971;51.778;10.330;2023-07-29T04:32:09;16.60;99.90
3912;DHT22;1971;51.778;10.330;2023-07-29T04:34:41;16.60;99.90
3912;DHT22;1971;51.778;10.330;2023-07-29T04:37:12;16.60;99.90
3912;DHT22;1971;51.778;10.330;2023-07-29T04:39:42;16.60;99.90
3912;DHT22;1971;51.778;10.330;2023-07-29T04:42:16;16.60;99.90
3912;DHT22;1971;51.778;10.330;2023-07-29T04:44:48;16.60;99.90
3912;DHT22;1971;51.778;10.330;2023-07-29T04:47:19;16.60;99.90
3912;DHT22;1971;51.778;10.330;2023-07-29T04:49:52;16.70;99.90
3912;DHT22;1971;51.778;10.330;2023-07-29T04:52:22;16.70;99.90
3912;DHT22;1971;51.778;10.330;2023-07-29T04:54:52;16.80;99.90
3912;DHT22;1971;51.778;10.330;2023-07-29T04:57:26;16.80;99.90
3912;DHT22;1971;51.778;10.330;2023-07-29T04:59:56;16.80;99.90
3912;DHT22;1971;51.778;10.330;2023-07-29T05:02:27;16.80;99.90
3912;DHT22;1971;51.778;10.330;2023-07-29T05:04:58;16.80;99.90
3912;DHT22;1971;51.778;10.330;2023-07-29T05:07:28;16.90;99.90
3912;DHT22;1971;51.778;10.330;2023-07-29T05:09:59;16.90;99.90
3912;DHT22;1971;51.778;10.330;2023-07-29T05:12:33;16.90;99.90
3912;DHT22;1971;51.778;10.330;2023-07-29T05:15:04;16.90;99.90
3912;DHT22;1971;51.778;10.330;2023-07-29T05:17:35;16.90;99.90
3912;DHT22;1971;51.778;10.330;2023-07-29T05:20:07;16.80;99.90
3912;DHT22;1971;51.778;10.330;2023-07-29T05:22:38;16.70;99.90
3912;DHT22;1971;51.778;10.330;2023-07-29T05:25:08;16.70;99.90
3912;DHT22;1971;51.778;10.330;2023-07-29T05:27:41;16.60;99.90
3912;DHT22;1971;51.778;10.330;2023-07-29T05:30:11;16.60;99.90
3912;DHT22;1971;51.778;10.330;2023-07-29T05:32:42;16.70;99.90
3912;DHT22;1971;51.778;10.330;2023-07-29T05:35:12;16.60;99.90
3912;DHT22;1971;51.778;10.330;2023-07-29T05:37:43;16.60;99.90
3912;DHT22;1971;51.778;10.330;2023-07-29T05:40:13;16.60;99.90
3912;DHT22;1971;51.778;10.330;2023-07-29T05:42:46;16.60;99.90
3912;DHT22;1971;51.778;10.330;2023-07-29T05:45:17;16.50;99.90
3912;DHT22;1971;51.778;10.330;2023-07-29T05:47:47;16.50;99.90
3912;DHT22;1971;51.778;10.330;2023-07-29T05:50:18;16.50;99.90
3912;DHT22;1971;51.778;10.330;2023-07-29T05:52:49;16.50;99.90
3912;DHT22;1971;51.778;10.330;2023-07-29T05:55:19;16.50;99.90
3912;DHT22;1971;51.778;10.330;2023-07-29T05:57:52;16.50;99.90
3912;DHT22;1971;51.778;10.330;2023-07-29T06:00:23;16.40;99.90
3912;DHT22;1971;51.778;10.330;2023-07-29T06:02:53;16.40;99.90
3912;DHT22;1971;51.778;10.330;2023-07-29T06:05:24;16.40;99.90
3912;DHT22;1971;51.778;10.330;2023-07-29T06:07:54;16.40;99.90
3912;DHT22;1971;51.778;10.330;2023-07-29T06:10:24;16.40;99.90
3912;DHT22;1971;51.778;10.330;2023-07-29T06:12:57;16.40;99.90
3912;DHT22;1971;51.778;10.330;2023-07-29T06:15:27;16.40;99.90
3912;DHT22;1971;51.778;10.330;2023-07-29T06:17:58;16.50;99.90
3912;DHT22;1971;51.778;10.330;2023-07-29T06:20:29;16.40;99.90
3912;DHT22;1971;51.778;10.330;2023-07-29T06:22:59;16.40;99.90
3912;DHT22;1971;51.778;10.330;2023-07-29T06:25:29;16.40;99.90
3912;DHT22;1971;51.778;10.330;2023-07-29T06:28:02;16.40;99.90
3912;DHT22;1971;51.778;10.330;2023-07-29T06:30:32;16.50;99.90
3912;DHT22;1971;51.778;10.330;2023-07-29T06:33:02;16.50;99.90
3912;DHT22;1971;51.778;10.330;2023-07-29T06:35:33;16.50;99.90
3912;DHT22;1971;51.778;10.330;2023-07-29T06:38:03;16.50;99.90
3912;DHT22;1971;51.778;10.330;2023-07-29T06:40:33;16.50;99.90
3912;DHT22;1971;51.778;10.330;2023-07-29T06:43:06;16.50;99.90
3912;DHT22;1971;51.778;10.330;2023-07-29T06:45:37;16.50;99.90
3912;DHT22;1971;51.778;10.330;2023-07-29T06:48:07;16.40;99.90
3912;DHT22;1971;51.778;10.330;2023-07-29T06:50:37;16.40;99.90
3912;DHT22;1971;51.778;10.330;2023-07-29T06:53:07;16.50;99.90
3912;DHT22;1971;51.778;10.330;2023-07-29T06:55:37;16.50;99.90
3912;DHT22;1971;51.778;10.330;2023-07-29T06:58:11;16.50;99.90
3912;DHT22;1971;51.778;10.330;2023-07-29T07:00:41;16.50;99.90
3912;DHT22;1971;51.778;10.330;2023-07-29T07:03:11;16.60;99.90
3912;DHT22;1971;51.778;10.330;2023-07-29T07:05:42;16.60;99.90
3912;DHT22;1971;51.778;10.330;2023-07-29T07:08:12;16.60;99.90
3912;DHT22;1971;51.778;10.330;2023-07-29T07:10:42;16.60;99.90
3912;DHT22;1971;51.778;10.330;2023-07-29T07:13:15;16.60;99.90
3912;DHT22;1971;51.778;10.330;2023-07-29T07:15:45;16.70;99.90
3912;DHT22;1971;51.778;10.330;2023-07-29T07:18:16;16.70;99.90
3912;DHT22;1971;51.778;10.330;2023-07-29T07:20:49;16.70;99.90
3912;DHT22;1971;51.778;10.330;2023-07-29T07:23:20;16.70;99.90
3912;DHT22;1971;51.778;10.330;2023-07-29T07:25:50;16.70;99.90
3912;DHT22;1971;51.778;10.330;2023-07-29T07:28:23;16.80;99.90
3912;DHT22;1971;51.778;10.330;2023-07-29T07:30:53;16.80;99.90
3912;DHT22;1971;51.778;10.330;2023-07-29T07:33:24;16.80;99.90
3912;DHT22;1971;51.778;10.330;2023-07-29T07:35:54;16.80;99.90
3912;DHT22;1971;51.778;10.330;2023-07-29T07:38:24;16.80;99.90
3912;DHT22;1971;51.778;10.330;2023-07-29T07:40:55;16.80;99.90
3912;DHT22;1971;51.778;10.330;2023-07-29T07:43:28;16.70;99.90
3912;DHT22;1971;51.778;10.330;2023-07-29T07:45:59;16.70;99.90
3912;DHT22;1971;51.778;10.330;2023-07-29T07:48:30;16.70;99.90
3912;DHT22;1971;51.778;10.330;2023-07-29T07:51:00;16.80;99.90
3912;DHT22;1971;51.778;10.330;2023-07-29T07:53:39;16.80;99.90
3912;DHT22;1971;51.778;10.330;2023-07-29T07:56:10;17.00;99.90
3912;DHT22;1971;51.778;10.330;2023-07-29T07:58:42;17.00;99.90
3912;DHT22;1971;51.778;10.330;2023-07-29T08:01:13;17.00;99.90
3912;DHT22;1971;51.778;10.330;2023-07-29T08:03:43;16.90;99.90
3912;DHT22;1971;51.778;10.330;2023-07-29T08:06:13;16.90;99.90
3912;DHT22;1971;51.778;10.330;2023-07-29T08:08:43;16.90;99.90
3912;DHT22;1971;51.778;10.330;2023-07-29T08:11:13;17.00;99.90
3912;DHT22;1971;51.778;10.330;2023-07-29T08:13:46;17.00;99.90
3912;DHT22;1971;51.778;10.330;2023-07-29T08:16:16;17.00;99.90
3912;DHT22;1971;51.778;10.330;2023-07-29T08:18:46;17.00;99.90
3912;DHT22;1971;51.778;10.330;2023-07-29T08:21:17;17.10;99.90
3912;DHT22;1971;51.778;10.330;2023-07-29T08:23:47;17.20;99.90
3912;DHT22;1971;51.778;10.330;2023-07-29T08:26:17;17.20;99.90
3912;DHT22;1971;51.778;10.330;2023-07-29T08:28:50;17.20;99.90
3912;DHT22;1971;51.778;10.330;2023-07-29T08:31:21;17.10;99.90
3912;DHT22;1971;51.778;10.330;2023-07-29T08:33:52;17.00;99.90
3912;DHT22;1971;51.778;10.330;2023-07-29T08:36:22;17.10;99.90
3912;DHT22;1971;51.778;10.330;2023-07-29T08:38:52;17.10;99.90
3912;DHT22;1971;51.778;10.330;2023-07-29T08:41:26;17.20;99.90
3912;DHT22;1971;51.778;10.330;2023-07-29T08:44:07;17.30;99.90
3912;DHT22;1971;51.778;10.330;2023-07-29T08:46:39;17.40;99.90
3912;DHT22;1971;51.778;10.330;2023-07-29T08:49:11;17.40;99.90
3912;DHT22;1971;51.778;10.330;2023-07-29T08:51:47;17.40;99.90
3912;DHT22;1971;51.778;10.330;2023-07-29T08:54:18;17.40;99.90
3912;DHT22;1971;51.778;10.330;2023-07-29T08:56:48;17.60;99.90
3912;DHT22;1971;51.778;10.330;2023-07-29T08:59:21;17.80;99.90
3912;DHT22;1971;51.778;10.330;2023-07-29T09:01:52;17.70;99.90
3912;DHT22;1971;51.778;10.330;2023-07-29T09:04:25;17.80;99.90
3912;DHT22;1971;51.778;10.330;2023-07-29T09:06:56;17.70;99.90
3912;DHT22;1971;51.778;10.330;2023-07-29T09:09:28;17.60;99.90
3912;DHT22;1971;51.778;10.330;2023-07-29T09:11:58;17.60;99.90
3912;DHT22;1971;51.778;10.330;2023-07-29T09:14:31;17.60;99.90
3912;DHT22;1971;51.778;10.330;2023-07-29T09:17:01;17.60;99.90
3912;DHT22;1971;51.778;10.330;2023-07-29T09:19:33;17.50;99.90
3912;DHT22;1971;51.778;10.330;2023-07-29T09:22:04;17.50;99.90
3912;DHT22;1971;51.778;10.330;2023-07-29T09:24:34;17.50;99.90
3912;DHT22;1971;51.778;10.330;2023-07-29T09:27:05;17.50;99.90
3912;DHT22;1971;51.778;10.330;2023-07-29T09:29:38;17.50;99.90
3912;DHT22;1971;51.778;10.330;2023-07-29T09:32:19;17.50;99.90
3912;DHT22;1971;51.778;10.330;2023-07-29T09:34:50;17.60;99.90
3912;DHT22;1971;51.778;10.330;2023-07-29T09:37:21;17.60;99.90
3912;DHT22;1971;51.778;10.330;2023-07-29T09:39:53;17.60;99.90
3912;DHT22;1971;51.778;10.330;2023-07-29T09:42:23;17.70;99.90
3912;DHT22;1971;51.778;10.330;2023-07-29T09:44:55;17.80;99.90
3912;DHT22;1971;51.778;10.330;2023-07-29T09:47:26;17.70;99.90
3912;DHT22;1971;51.778;10.330;2023-07-29T09:49:57;17.40;99.90
3912;DHT22;1971;51.778;10.330;2023-07-29T09:52:29;17.30;99.90
3912;DHT22;1971;51.778;10.330;2023-07-29T09:54:59;17.20;99.90
3912;DHT22;1971;51.778;10.330;2023-07-29T09:57:30;17.20;99.90
3912;DHT22;1971;51.778;10.330;2023-07-29T10:00:03;17.20;99.90
3912;DHT22;1971;51.778;10.330;2023-07-29T10:02:39;17.10;99.90
3912;DHT22;1971;51.778;10.330;2023-07-29T10:05:10;17.20;99.90
3912;DHT22;1971;51.778;10.330;2023-07-29T10:07:40;17.20;99.90
3912;DHT22;1971;51.778;10.330;2023-07-29T10:10:11;17.30;99.90
3912;DHT22;1971;51.778;10.330;2023-07-29T10:12:41;17.30;99.90
3912;DHT22;1971;51.778;10.330;2023-07-29T10:15:15;17.40;99.90
3912;DHT22;1971;51.778;10.330;2023-07-29T10:17:45;17.70;99.90
3912;DHT22;1971;51.778;10.330;2023-07-29T10:20:16;17.80;99.90
3912;DHT22;1971;51.778;10.330;2023-07-29T10:22:47;18.00;99.90
3912;DHT22;1971;51.778;10.330;2023-07-29T10:25:22;18.20;99.90
3912;DHT22;1971;51.778;10.330;2023-07-29T10:27:56;18.40;99.90
3912;DHT22;1971;51.778;10.330;2023-07-29T10:30:30;18.90;99.90
3912;DHT22;1971;51.778;10.330;2023-07-29T10:33:03;19.00;99.90
3912;DHT22;1971;51.778;10.330;2023-07-29T10:35:34;19.40;99.90
3912;DHT22;1971;51.778;10.330;2023-07-29T10:38:06;19.50;99.90
3912;DHT22;1971;51.778;10.330;2023-07-29T10:40:47;19.30;99.90
3912;DHT22;1971;51.778;10.330;2023-07-29T10:43:24;19.30;99.90
3912;DHT22;1971;51.778;10.330;2023-07-29T10:45:59;18.90;99.90
3912;DHT22;1971;51.778;10.330;2023-07-29T10:48:52;18.70;99.90
3912;DHT22;1971;51.778;10.330;2023-07-29T10:51:24;18.50;99.90
3912;DHT22;1971;51.778;10.330;2023-07-29T10:53:58;18.50;99.90
3912;DHT22;1971;51.778;10.330;2023-07-29T10:56:30;18.40;99.90
3912;DHT22;1971;51.778;10.330;2023-07-29T10:59:31;18.50;99.90
3912;DHT22;1971;51.778;10.330;2023-07-29T11:02:14;19.20;99.90
3912;DHT22;1971;51.778;10.330;2023-07-29T11:04:50;19.60;99.90
3912;DHT22;1971;51.778;10.330;2023-07-29T11:07:22;19.60;99.90
3912;DHT22;1971;51.778;10.330;2023-07-29T11:10:00;19.70;99.90
3912;DHT22;1971;51.778;10.330;2023-07-29T11:12:42;19.60;99.90
3912;DHT22;1971;51.778;10.330;2023-07-29T11:15:15;19.40;99.90
3912;DHT22;1971;51.778;10.330;2023-07-29T11:17:50;19.20;99.90
3912;DHT22;1971;51.778;10.330;2023-07-29T11:20:21;19.20;99.90
3912;DHT22;1971;51.778;10.330;2023-07-29T11:22:53;19.00;99.90
3912;DHT22;1971;51.778;10.330;2023-07-29T11:25:25;18.80;99.90
3912;DHT22;1971;51.778;10.330;2023-07-29T11:27:57;18.70;99.90
3912;DHT22;1971;51.778;10.330;2023-07-29T11:30:32;18.60;99.90
3912;DHT22;1971;51.778;10.330;2023-07-29T11:33:05;18.40;99.90
3912;DHT22;1971;51.778;10.330;2023-07-29T11:35:36;18.10;99.90
3912;DHT22;1971;51.778;10.330;2023-07-29T11:38:07;18.10;99.90
3912;DHT22;1971;51.778;10.330;2023-07-29T11:40:37;18.90;99.90
3912;DHT22;1971;51.778;10.330;2023-07-29T11:43:08;19.40;99.90
3912;DHT22;1971;51.778;10.330;2023-07-29T11:45:40;19.60;99.90
3912;DHT22;1971;51.778;10.330;2023-07-29T11:48:26;19.60;99.90
3912;DHT22;1971;51.778;10.330;2023-07-29T11:50:57;19.60;99.90
3912;DHT22;1971;51.778;10.330;2023-07-29T11:53:28;20.10;99.90
3912;DHT22;1971;51.778;10.330;2023-07-29T11:55:59;20.70;99.90
3912;DHT22;1971;51.778;10.330;2023-07-29T11:58:30;20.60;99.90
3912;DHT22;1971;51.778;10.330;2023-07-29T12:01:01;20.40;99.90
3912;DHT22;1971;51.778;10.330;2023-07-29T12:03:35;19.80;99.90
3912;DHT22;1971;51.778;10.330;2023-07-29T12:06:07;19.90;99.90
3912;DHT22;1971;51.778;10.330;2023-07-29T12:08:38;20.00;99.90
3912;DHT22;1971;51.778;10.330;2023-07-29T12:11:08;20.00;99.90
3912;DHT22;1971;51.778;10.330;2023-07-29T12:13:41;20.10;99.90
3912;DHT22;1971;51.778;10.330;2023-07-29T12:16:16;20.80;99.90
3912;DHT22;1971;51.778;10.330;2023-07-29T12:18:50;21.00;1.00
3912;DHT22;1971;51.778;10.330;2023-07-29T12:21:20;21.20;1.00
3912;DHT22;1971;51.778;10.330;2023-07-29T12:23:50;21.70;1.00
3912;DHT22;1971;51.778;10.330;2023-07-29T12:26:27;21.80;1.00
3912;DHT22;1971;51.778;10.330;2023-07-29T12:28:58;21.80;99.90
3912;DHT22;1971;51.778;10.330;2023-07-29T12:31:31;21.20;99.90
3912;DHT22;1971;51.778;10.330;2023-07-29T12:34:04;21.20;99.90
3912;DHT22;1971;51.778;10.330;2023-07-29T12:36:45;21.40;99.90
3912;DHT22;1971;51.778;10.330;2023-07-29T12:39:17;20.90;99.90
3912;DHT22;1971;51.778;10.330;2023-07-29T12:41:47;20.80;99.90
3912;DHT22;1971;51.778;10.330;2023-07-29T12:44:18;20.90;99.90
3912;DHT22;1971;51.778;10.330;2023-07-29T12:46:48;21.20;99.90
3912;DHT22;1971;51.778;10.330;2023-07-29T12:49:21;20.90;99.90
3912;DHT22;1971;51.778;10.330;2023-07-29T12:51:52;20.50;99.90
3912;DHT22;1971;51.778;10.330;2023-07-29T12:54:22;20.70;99.90
3912;DHT22;1971;51.778;10.330;2023-07-29T12:56:52;21.00;99.90
3912;DHT22;1971;51.778;10.330;2023-07-29T12:59:23;21.00;99.90
3912;DHT22;1971;51.778;10.330;2023-07-29T13:01:53;20.40;99.90
3912;DHT22;1971;51.778;10.330;2023-07-29T13:04:26;20.70;99.90
3912;DHT22;1971;51.778;10.330;2023-07-29T13:06:56;20.80;99.90
3912;DHT22;1971;51.778;10.330;2023-07-29T13:09:26;20.60;89.10
3912;DHT22;1971;51.778;10.330;2023-07-29T13:11:56;20.60;99.90
3912;DHT22;1971;51.778;10.330;2023-07-29T13:14:26;20.10;1.00
3912;DHT22;1971;51.778;10.330;2023-07-29T13:16:56;19.90;1.00
3912;DHT22;1971;51.778;10.330;2023-07-29T13:19:29;20.50;71.20
3912;DHT22;1971;51.778;10.330;2023-07-29T13:21:59;20.80;44.50
3912;DHT22;1971;51.778;10.330;2023-07-29T13:24:29;21.10;1.00
3912;DHT22;1971;51.778;10.330;2023-07-29T13:27:00;21.10;1.00
3912;DHT22;1971;51.778;10.330;2023-07-29T13:29:30;21.30;1.00
3912;DHT22;1971;51.778;10.330;2023-07-29T13:32:00;21.40;1.00
3912;DHT22;1971;51.778;10.330;2023-07-29T13:34:33;21.00;1.00
3912;DHT22;1971;51.778;10.330;2023-07-29T13:37:03;20.90;1.00
3912;DHT22;1971;51.778;10.330;2023-07-29T13:39:33;21.30;1.00
3912;DHT22;1971;51.778;10.330;2023-07-29T13:42:04;21.60;1.00
3912;DHT22;1971;51.778;10.330;2023-07-29T13:44:34;21.60;1.00
3912;DHT22;1971;51.778;10.330;2023-07-29T13:47:05;20.60;1.00
3912;DHT22;1971;51.778;10.330;2023-07-29T13:49:37;20.50;1.00
3912;DHT22;1971;51.778;10.330;2023-07-29T13:52:08;20.10;1.00
3912;DHT22;1971;51.778;10.330;2023-07-29T13:54:38;19.70;1.00
3912;DHT22;1971;51.778;10.330;2023-07-29T13:57:08;19.40;1.00
3912;DHT22;1971;51.778;10.330;2023-07-29T13:59:39;19.60;1.00
3912;DHT22;1971;51.778;10.330;2023-07-29T14:02:09;19.60;1.00
3912;DHT22;1971;51.778;10.330;2023-07-29T14:04:42;19.80;1.00
3912;DHT22;1971;51.778;10.330;2023-07-29T14:07:12;20.60;1.00
3912;DHT22;1971;51.778;10.330;2023-07-29T14:09:42;21.30;1.00
3912;DHT22;1971;51.778;10.330;2023-07-29T14:12:13;21.50;1.00
3912;DHT22;1971;51.778;10.330;2023-07-29T14:14:43;22.00;1.00
3912;DHT22;1971;51.778;10.330;2023-07-29T14:17:13;21.90;1.00
3912;DHT22;1971;51.778;10.330;2023-07-29T14:19:46;21.80;1.00
3912;DHT22;1971;51.778;10.330;2023-07-29T14:22:16;21.20;1.00
3912;DHT22;1971;51.778;10.330;2023-07-29T14:24:46;20.60;1.00
3912;DHT22;1971;51.778;10.330;2023-07-29T14:27:16;20.40;1.00
3912;DHT22;1971;51.778;10.330;2023-07-29T14:29:47;20.20;1.00
3912;DHT22;1971;51.778;10.330;2023-07-29T14:32:18;20.10;1.00
3912;DHT22;1971;51.778;10.330;2023-07-29T14:34:52;20.30;1.00
3912;DHT22;1971;51.778;10.330;2023-07-29T14:37:23;20.30;1.00
3912;DHT22;1971;51.778;10.330;2023-07-29T14:39:53;20.40;1.00
3912;DHT22;1971;51.778;10.330;2023-07-29T14:42:23;20.40;1.00
3912;DHT22;1971;51.778;10.330;2023-07-29T14:44:54;20.20;1.00
3912;DHT22;1971;51.778;10.330;2023-07-29T14:47:24;20.20;1.00
3912;DHT22;1971;51.778;10.330;2023-07-29T14:49:57;20.20;1.00
3912;DHT22;1971;51.778;10.330;2023-07-29T14:52:27;20.30;1.00
3912;DHT22;1971;51.778;10.330;2023-07-29T14:54:58;20.20;1.00
3912;DHT22;1971;51.778;10.330;2023-07-29T14:57:28;20.20;1.00
3912;DHT22;1971;51.778;10.330;2023-07-29T14:59:58;20.10;1.00
3912;DHT22;1971;51.778;10.330;2023-07-29T15:02:28;20.20;1.00
3912;DHT22;1971;51.778;10.330;2023-07-29T15:05:01;20.10;1.00
3912;DHT22;1971;51.778;10.330;2023-07-29T15:07:31;20.20;1.00
3912;DHT22;1971;51.778;10.330;2023-07-29T15:10:02;20.40;1.00
3912;DHT22;1971;51.778;10.330;2023-07-29T15:12:32;20.70;1.00
3912;DHT22;1971;51.778;10.330;2023-07-29T15:15:03;20.60;1.00
3912;DHT22;1971;51.778;10.330;2023-07-29T15:17:33;20.40;1.00
3912;DHT22;1971;51.778;10.330;2023-07-29T15:20:06;20.30;1.00
3912;DHT22;1971;51.778;10.330;2023-07-29T15:22:36;20.10;1.00
3912;DHT22;1971;51.778;10.330;2023-07-29T15:25:08;20.10;1.00
3912;DHT22;1971;51.778;10.330;2023-07-29T15:27:39;20.00;1.00
3912;DHT22;1971;51.778;10.330;2023-07-29T15:30:09;20.20;1.00
3912;DHT22;1971;51.778;10.330;2023-07-29T15:32:40;20.40;1.00
3912;DHT22;1971;51.778;10.330;2023-07-29T15:35:13;20.70;1.00
3912;DHT22;1971;51.778;10.330;2023-07-29T15:37:44;21.10;1.00
3912;DHT22;1971;51.778;10.330;2023-07-29T15:40:14;21.20;1.00
3912;DHT22;1971;51.778;10.330;2023-07-29T15:42:45;21.50;1.00
3912;DHT22;1971;51.778;10.330;2023-07-29T15:45:15;21.90;1.00
3912;DHT22;1971;51.778;10.330;2023-07-29T15:47:45;22.10;1.00
3912;DHT22;1971;51.778;10.330;2023-07-29T15:50:21;22.00;1.00
3912;DHT22;1971;51.778;10.330;2023-07-29T15:52:51;22.20;1.00
3912;DHT22;1971;51.778;10.330;2023-07-29T15:55:21;22.00;1.00
3912;DHT22;1971;51.778;10.330;2023-07-29T15:57:52;21.90;1.00
3912;DHT22;1971;51.778;10.330;2023-07-29T16:00:22;22.20;1.00
3912;DHT22;1971;51.778;10.330;2023-07-29T16:02:55;22.30;1.00
3912;DHT22;1971;51.778;10.330;2023-07-29T16:05:29;22.50;1.00
3912;DHT22;1971;51.778;10.330;2023-07-29T16:07:59;22.10;1.00
3912;DHT22;1971;51.778;10.330;2023-07-29T16:10:30;21.50;1.00
3912;DHT22;1971;51.778;10.330;2023-07-29T16:13:00;20.80;1.00
3912;DHT22;1971;51.778;10.330;2023-07-29T16:15:34;21.00;1.00
3912;DHT22;1971;51.778;10.330;2023-07-29T16:18:05;21.00;1.00